HESH/SSH METAR and TAF weather

Enter ICAO airport designator
Station Type Date Time Source
HESH METAR 2019/04/25 01:00 UTC NOAA

HESH 250100Z 36012KT CAVOK 22/17 Q1015 NOSIG


Station Type Date Time Source
HESH Decoded METAR 2019/04/25 01:00 UTC NOAA

Sharm El Sheikhintl, Egypt (HESH) 27-58N 034-23E
Apr 24, 2019 - 09:00 PM EDT / 2019.04.25 0100 UTC
Wind: from the N (360 degrees) at 14 MPH (12 KT):0
Visibility: greater than 7 mile(s):0
Temperature: 71 F (22 C)
Dew Point: 62 F (17 C)
Relative Humidity: 73%
Pressure (altimeter): 29.97 in. Hg (1015 hPa)
ob: HESH 250100Z 36012KT CAVOK 22/17 Q1015 NOSIG
cycle: 1

Station Type Date Time Source
HESH TAF 2019/04/24 18:42 UTC NOAA

TAF TAF HESH 241700Z 2418/2524 01010KT CAVOK

Example: see airport list